To NAV CANADA Home Page Login to a new session Search on AWWS site Feedback and Comments Disclaimer Vers la page française équivalente Tips FAQ What's new on the site To the Forecasts and Observations / NOTAM section To "File a Flight Plan" website Publications and other links Update of the User's profile FIC Telephone Numbers My Weather Data Folder Route Weather Data Regional Weather Data Local Weather Data To the Forecasts and Observations / NOTAM section
Request Generated 04/01/2015 at 17:48:26 UTC . Weather information available at that time is displayed.

METAR/TAF

TALOYOAK/NU    

METAR CYYH 011700Z 05016G22KT 1SM BR BLSN BKN030 BKN080 M28/M32 A3008
RMK FG2SC3AC2 SLP191=
SPECI CYYH 011635Z 06013KT 1 1/2SM BR DRSN FEW008 BKN030 OVC080
M29/M32 A3007 RMK FG1ST1SC3AC3 SLP189=
METAR CYYH 011600Z 05014KT 6SM BR DRSN FEW008 BKN030 OVC080 M29/M33
A3007 RMK ST2SC3AC3 VIS SE-S 2 SLP188=
METAR CYYH 011500Z 06009KT 10SM IC DRSN VCFG FEW010 BKN040 BKN080
M30/M34 A3007 RMK ST2SC4AC1 VIS SE 2 SLP187=

TAF AMD CYYH 011741Z 0118/0206 04015G25KT 1SM IC BR BLSN FEW008
BKN030 BKN080 TEMPO 0118/0121 6SM BR SCT030 BKN080
FM012100 04018KT P6SM SCT030 BKN080 TEMPO 0121/0206 2SM IC BR
BKN030 BKN080
BECMG 0202/0204 03012KT
RMK NXT FCST BY 020000Z=
Your time UTC time
Weather data provided by Environment Canada and NAV CANADA